sensor_id;sensor_type;location;lat;lon;timestamp;P1;durP1;ratioP1;P2;durP2;ratioP2
78985;SDS011;68384;55.750;48.746;2023-08-06T00:00:23;14.70;;;11.68;;
78985;SDS011;68384;55.750;48.746;2023-08-06T00:01:27;14.52;;;11.60;;
78985;SDS011;68384;55.750;48.746;2023-08-06T00:02:30;18.95;;;12.85;;
78985;SDS011;68384;55.750;48.746;2023-08-06T00:03:34;15.93;;;12.68;;
78985;SDS011;68384;55.750;48.746;2023-08-06T00:04:38;16.73;;;13.50;;
78985;SDS011;68384;55.750;48.746;2023-08-06T00:05:42;21.83;;;14.02;;
78985;SDS011;68384;55.750;48.746;2023-08-06T00:06:45;16.90;;;13.23;;
78985;SDS011;68384;55.750;48.746;2023-08-06T00:07:49;16.83;;;12.75;;
78985;SDS011;68384;55.750;48.746;2023-08-06T00:08:52;15.80;;;14.10;;
78985;SDS011;68384;55.750;48.746;2023-08-06T00:09:57;18.00;;;13.85;;
78985;SDS011;68384;55.750;48.746;2023-08-06T00:10:59;18.98;;;14.52;;
78985;SDS011;68384;55.750;48.746;2023-08-06T00:12:04;18.02;;;14.60;;
78985;SDS011;68384;55.750;48.746;2023-08-06T00:13:07;22.63;;;14.90;;
78985;SDS011;68384;55.750;48.746;2023-08-06T00:14:11;15.75;;;13.45;;
78985;SDS011;68384;55.750;48.746;2023-08-06T00:15:14;15.30;;;13.57;;
78985;SDS011;68384;55.750;48.746;2023-08-06T00:16:18;15.63;;;13.60;;
78985;SDS011;68384;55.750;48.746;2023-08-06T00:17:21;16.63;;;14.85;;
78985;SDS011;68384;55.750;48.746;2023-08-06T00:18:25;16.73;;;13.85;;
78985;SDS011;68384;55.750;48.746;2023-08-06T00:19:28;19.27;;;15.15;;
78985;SDS011;68384;55.750;48.746;2023-08-06T00:20:33;20.05;;;14.57;;
78985;SDS011;68384;55.750;48.746;2023-08-06T00:21:36;17.92;;;14.68;;
78985;SDS011;68384;55.750;48.746;2023-08-06T00:22:40;19.52;;;14.05;;
78985;SDS011;68384;55.750;48.746;2023-08-06T00:23:43;18.10;;;15.07;;
78985;SDS011;68384;55.750;48.746;2023-08-06T00:24:47;19.50;;;15.15;;
78985;SDS011;68384;55.750;48.746;2023-08-06T00:25:50;19.40;;;15.10;;
78985;SDS011;68384;55.750;48.746;2023-08-06T00:26:54;17.05;;;14.80;;
78985;SDS011;68384;55.750;48.746;2023-08-06T00:27:57;17.40;;;14.32;;
78985;SDS011;68384;55.750;48.746;2023-08-06T00:29:00;20.15;;;14.68;;
78985;SDS011;68384;55.750;48.746;2023-08-06T00:30:04;16.42;;;13.57;;
78985;SDS011;68384;55.750;48.746;2023-08-06T00:31:08;19.92;;;14.88;;
78985;SDS011;68384;55.750;48.746;2023-08-06T00:32:11;18.27;;;14.73;;
78985;SDS011;68384;55.750;48.746;2023-08-06T00:33:15;17.00;;;13.70;;
78985;SDS011;68384;55.750;48.746;2023-08-06T00:34:18;16.00;;;12.95;;
78985;SDS011;68384;55.750;48.746;2023-08-06T00:35:22;14.77;;;12.95;;
78985;SDS011;68384;55.750;48.746;2023-08-06T00:36:26;14.80;;;12.32;;
78985;SDS011;68384;55.750;48.746;2023-08-06T00:37:30;14.90;;;12.10;;
78985;SDS011;68384;55.750;48.746;2023-08-06T00:38:34;15.63;;;12.40;;
78985;SDS011;68384;55.750;48.746;2023-08-06T00:39:37;17.10;;;13.38;;
78985;SDS011;68384;55.750;48.746;2023-08-06T00:40:41;15.85;;;11.35;;
78985;SDS011;68384;55.750;48.746;2023-08-06T00:41:45;15.73;;;11.15;;
78985;SDS011;68384;55.750;48.746;2023-08-06T00:42:48;12.00;;;9.63;;
78985;SDS011;68384;55.750;48.746;2023-08-06T00:43:52;14.43;;;10.38;;
78985;SDS011;68384;55.750;48.746;2023-08-06T00:44:55;13.93;;;11.07;;
78985;SDS011;68384;55.750;48.746;2023-08-06T00:45:59;12.93;;;10.50;;
78985;SDS011;68384;55.750;48.746;2023-08-06T00:47:02;12.80;;;11.40;;
78985;SDS011;68384;55.750;48.746;2023-08-06T00:48:07;14.20;;;10.02;;
78985;SDS011;68384;55.750;48.746;2023-08-06T00:49:10;13.65;;;11.23;;
78985;SDS011;68384;55.750;48.746;2023-08-06T00:50:14;12.63;;;11.13;;
78985;SDS011;68384;55.750;48.746;2023-08-06T00:51:18;14.82;;;11.82;;
78985;SDS011;68384;55.750;48.746;2023-08-06T00:52:24;15.60;;;12.23;;
78985;SDS011;68384;55.750;48.746;2023-08-06T00:53:27;18.00;;;12.55;;
78985;SDS011;68384;55.750;48.746;2023-08-06T00:54:31;15.25;;;12.77;;
78985;SDS011;68384;55.750;48.746;2023-08-06T00:55:35;18.67;;;12.98;;
78985;SDS011;68384;55.750;48.746;2023-08-06T00:56:39;18.77;;;13.63;;
78985;SDS011;68384;55.750;48.746;2023-08-06T00:57:44;18.08;;;14.23;;
78985;SDS011;68384;55.750;48.746;2023-08-06T00:58:48;16.38;;;13.40;;
78985;SDS011;68384;55.750;48.746;2023-08-06T00:59:51;17.85;;;13.90;;
78985;SDS011;68384;55.750;48.746;2023-08-06T01:00:55;21.60;;;14.70;;
78985;SDS011;68384;55.750;48.746;2023-08-06T01:01:58;19.27;;;14.10;;
78985;SDS011;68384;55.750;48.746;2023-08-06T01:03:01;14.93;;;12.90;;
78985;SDS011;68384;55.750;48.746;2023-08-06T01:04:05;22.00;;;13.38;;
78985;SDS011;68384;55.750;48.746;2023-08-06T01:05:09;14.98;;;12.27;;
78985;SDS011;68384;55.750;48.746;2023-08-06T01:06:13;17.55;;;12.52;;
78985;SDS011;68384;55.750;48.746;2023-08-06T01:07:24;16.58;;;12.63;;
78985;SDS011;68384;55.750;48.746;2023-08-06T01:08:39;15.70;;;11.77;;
78985;SDS011;68384;55.750;48.746;2023-08-06T01:09:50;16.05;;;12.48;;
78985;SDS011;68384;55.750;48.746;2023-08-06T01:11:16;14.75;;;12.80;;
78985;SDS011;68384;55.750;48.746;2023-08-06T01:12:31;17.50;;;12.73;;
78985;SDS011;68384;55.750;48.746;2023-08-06T01:13:45;19.02;;;12.18;;
78985;SDS011;68384;55.750;48.746;2023-08-06T01:14:54;15.18;;;12.07;;
78985;SDS011;68384;55.750;48.746;2023-08-06T01:16:05;17.33;;;13.20;;
78985;SDS011;68384;55.750;48.746;2023-08-06T01:17:09;16.65;;;13.30;;
78985;SDS011;68384;55.750;48.746;2023-08-06T01:18:15;18.52;;;13.77;;
78985;SDS011;68384;55.750;48.746;2023-08-06T01:19:18;15.00;;;11.80;;
78985;SDS011;68384;55.750;48.746;2023-08-06T01:20:28;18.17;;;14.30;;
78985;SDS011;68384;55.750;48.746;2023-08-06T01:21:32;19.40;;;13.57;;
78985;SDS011;68384;55.750;48.746;2023-08-06T01:22:36;17.20;;;13.32;;
78985;SDS011;68384;55.750;48.746;2023-08-06T01:23:39;19.85;;;15.63;;
78985;SDS011;68384;55.750;48.746;2023-08-06T01:24:44;21.05;;;14.90;;
78985;SDS011;68384;55.750;48.746;2023-08-06T01:25:53;18.90;;;15.48;;
78985;SDS011;68384;55.750;48.746;2023-08-06T01:27:06;19.00;;;14.43;;
78985;SDS011;68384;55.750;48.746;2023-08-06T01:28:16;19.30;;;14.55;;
78985;SDS011;68384;55.750;48.746;2023-08-06T01:29:28;19.38;;;14.45;;
78985;SDS011;68384;55.750;48.746;2023-08-06T01:30:37;19.27;;;15.60;;
78985;SDS011;68384;55.750;48.746;2023-08-06T01:31:44;18.02;;;14.43;;
78985;SDS011;68384;55.750;48.746;2023-08-06T01:32:53;18.17;;;14.02;;
78985;SDS011;68384;55.750;48.746;2023-08-06T01:34:03;21.80;;;15.82;;
78985;SDS011;68384;55.750;48.746;2023-08-06T01:35:09;16.73;;;14.48;;
78985;SDS011;68384;55.750;48.746;2023-08-06T01:36:17;18.15;;;14.15;;
78985;SDS011;68384;55.750;48.746;2023-08-06T01:37:22;22.45;;;14.02;;
78985;SDS011;68384;55.750;48.746;2023-08-06T01:38:27;18.75;;;14.15;;
78985;SDS011;68384;55.750;48.746;2023-08-06T01:39:32;17.85;;;13.45;;
78985;SDS011;68384;55.750;48.746;2023-08-06T01:40:38;19.17;;;13.88;;
78985;SDS011;68384;55.750;48.746;2023-08-06T01:41:41;17.92;;;13.23;;
78985;SDS011;68384;55.750;48.746;2023-08-06T01:42:45;14.95;;;11.50;;
78985;SDS011;68384;55.750;48.746;2023-08-06T01:43:48;16.15;;;12.23;;
78985;SDS011;68384;55.750;48.746;2023-08-06T01:44:52;13.75;;;11.68;;
78985;SDS011;68384;55.750;48.746;2023-08-06T01:45:55;16.65;;;12.35;;
78985;SDS011;68384;55.750;48.746;2023-08-06T01:46:59;15.77;;;11.73;;
78985;SDS011;68384;55.750;48.746;2023-08-06T01:48:01;18.50;;;13.95;;
78985;SDS011;68384;55.750;48.746;2023-08-06T01:49:06;17.15;;;12.63;;
78985;SDS011;68384;55.750;48.746;2023-08-06T01:50:09;17.52;;;13.82;;
78985;SDS011;68384;55.750;48.746;2023-08-06T01:51:13;21.55;;;13.63;;
78985;SDS011;68384;55.750;48.746;2023-08-06T01:52:17;19.63;;;13.32;;
78985;SDS011;68384;55.750;48.746;2023-08-06T01:53:21;15.40;;;13.13;;
78985;SDS011;68384;55.750;48.746;2023-08-06T01:54:26;17.13;;;12.98;;
78985;SDS011;68384;55.750;48.746;2023-08-06T01:55:31;19.50;;;13.88;;
78985;SDS011;68384;55.750;48.746;2023-08-06T01:56:33;18.75;;;15.00;;
78985;SDS011;68384;55.750;48.746;2023-08-06T01:57:37;20.05;;;14.98;;
78985;SDS011;68384;55.750;48.746;2023-08-06T01:58:40;17.25;;;13.27;;
78985;SDS011;68384;55.750;48.746;2023-08-06T01:59:44;15.57;;;13.27;;
78985;SDS011;68384;55.750;48.746;2023-08-06T02:00:47;16.13;;;13.30;;
78985;SDS011;68384;55.750;48.746;2023-08-06T02:01:51;19.35;;;13.50;;
78985;SDS011;68384;55.750;48.746;2023-08-06T02:02:54;18.30;;;14.07;;
78985;SDS011;68384;55.750;48.746;2023-08-06T02:03:58;23.65;;;14.57;;
78985;SDS011;68384;55.750;48.746;2023-08-06T02:05:01;16.35;;;14.10;;
78985;SDS011;68384;55.750;48.746;2023-08-06T02:06:06;18.10;;;15.23;;
78985;SDS011;68384;55.750;48.746;2023-08-06T02:07:09;15.88;;;13.93;;
78985;SDS011;68384;55.750;48.746;2023-08-06T02:08:15;17.30;;;13.73;;
78985;SDS011;68384;55.750;48.746;2023-08-06T02:09:17;16.35;;;13.55;;
78985;SDS011;68384;55.750;48.746;2023-08-06T02:10:21;16.15;;;13.05;;
78985;SDS011;68384;55.750;48.746;2023-08-06T02:11:24;17.30;;;13.73;;
78985;SDS011;68384;55.750;48.746;2023-08-06T02:12:28;20.67;;;13.95;;
78985;SDS011;68384;55.750;48.746;2023-08-06T02:13:31;21.10;;;14.27;;
78985;SDS011;68384;55.750;48.746;2023-08-06T02:14:35;16.25;;;13.73;;
78985;SDS011;68384;55.750;48.746;2023-08-06T02:15:41;16.67;;;12.48;;
78985;SDS011;68384;55.750;48.746;2023-08-06T02:16:46;17.67;;;12.90;;
78985;SDS011;68384;55.750;48.746;2023-08-06T02:17:49;20.13;;;14.20;;
78985;SDS011;68384;55.750;48.746;2023-08-06T02:19:13;16.58;;;13.32;;
78985;SDS011;68384;55.750;48.746;2023-08-06T02:20:16;20.70;;;12.98;;
78985;SDS011;68384;55.750;48.746;2023-08-06T02:21:19;16.92;;;12.63;;
78985;SDS011;68384;55.750;48.746;2023-08-06T02:22:22;14.27;;;11.50;;
78985;SDS011;68384;55.750;48.746;2023-08-06T02:23:27;15.30;;;11.30;;
78985;SDS011;68384;55.750;48.746;2023-08-06T02:24:30;13.23;;;11.18;;
78985;SDS011;68384;55.750;48.746;2023-08-06T02:25:34;16.20;;;11.77;;
78985;SDS011;68384;55.750;48.746;2023-08-06T02:26:37;14.70;;;11.38;;
78985;SDS011;68384;55.750;48.746;2023-08-06T02:27:41;12.90;;;9.45;;
78985;SDS011;68384;55.750;48.746;2023-08-06T02:28:44;13.80;;;9.82;;
78985;SDS011;68384;55.750;48.746;2023-08-06T02:29:49;14.38;;;10.95;;
78985;SDS011;68384;55.750;48.746;2023-08-06T02:30:51;14.13;;;10.05;;
78985;SDS011;68384;55.750;48.746;2023-08-06T02:31:55;12.68;;;9.65;;
78985;SDS011;68384;55.750;48.746;2023-08-06T02:32:58;11.23;;;9.63;;
78985;SDS011;68384;55.750;48.746;2023-08-06T02:34:02;11.52;;;8.82;;
78985;SDS011;68384;55.750;48.746;2023-08-06T02:35:06;12.93;;;9.48;;
78985;SDS011;68384;55.750;48.746;2023-08-06T02:36:10;12.70;;;8.60;;
78985;SDS011;68384;55.750;48.746;2023-08-06T02:37:13;12.30;;;8.77;;
78985;SDS011;68384;55.750;48.746;2023-08-06T02:38:17;11.15;;;9.27;;
78985;SDS011;68384;55.750;48.746;2023-08-06T02:39:21;12.45;;;9.40;;
78985;SDS011;68384;55.750;48.746;2023-08-06T02:40:25;12.40;;;9.32;;
78985;SDS011;68384;55.750;48.746;2023-08-06T02:41:30;11.10;;;9.25;;
78985;SDS011;68384;55.750;48.746;2023-08-06T02:42:34;15.23;;;9.38;;
78985;SDS011;68384;55.750;48.746;2023-08-06T02:43:36;12.07;;;9.27;;
78985;SDS011;68384;55.750;48.746;2023-08-06T02:44:41;10.55;;;8.40;;
78985;SDS011;68384;55.750;48.746;2023-08-06T02:45:44;10.73;;;9.45;;
78985;SDS011;68384;55.750;48.746;2023-08-06T02:46:47;17.25;;;9.60;;
78985;SDS011;68384;55.750;48.746;2023-08-06T02:47:51;12.90;;;9.95;;
78985;SDS011;68384;55.750;48.746;2023-08-06T02:48:54;18.38;;;10.88;;
78985;SDS011;68384;55.750;48.746;2023-08-06T02:49:58;16.05;;;10.70;;
78985;SDS011;68384;55.750;48.746;2023-08-06T02:51:01;11.38;;;9.10;;
78985;SDS011;68384;55.750;48.746;2023-08-06T02:52:06;12.82;;;9.70;;
78985;SDS011;68384;55.750;48.746;2023-08-06T02:53:09;13.57;;;9.65;;
78985;SDS011;68384;55.750;48.746;2023-08-06T02:54:13;12.98;;;10.13;;
78985;SDS011;68384;55.750;48.746;2023-08-06T02:55:18;13.55;;;10.35;;
78985;SDS011;68384;55.750;48.746;2023-08-06T02:56:23;12.13;;;9.63;;
78985;SDS011;68384;55.750;48.746;2023-08-06T02:57:37;11.52;;;9.48;;
78985;SDS011;68384;55.750;48.746;2023-08-06T02:58:40;11.65;;;9.75;;
78985;SDS011;68384;55.750;48.746;2023-08-06T02:59:56;13.55;;;10.80;;
78985;SDS011;68384;55.750;48.746;2023-08-06T03:01:00;12.98;;;9.40;;
78985;SDS011;68384;55.750;48.746;2023-08-06T03:02:08;13.63;;;10.45;;
78985;SDS011;68384;55.750;48.746;2023-08-06T03:03:34;12.13;;;9.45;;
78985;SDS011;68384;55.750;48.746;2023-08-06T03:04:40;11.13;;;9.82;;
78985;SDS011;68384;55.750;48.746;2023-08-06T03:05:51;13.35;;;10.90;;
78985;SDS011;68384;55.750;48.746;2023-08-06T03:07:05;12.20;;;9.85;;
78985;SDS011;68384;55.750;48.746;2023-08-06T03:08:16;12.50;;;9.88;;
78985;SDS011;68384;55.750;48.746;2023-08-06T03:09:25;11.23;;;10.05;;
78985;SDS011;68384;55.750;48.746;2023-08-06T03:10:29;13.38;;;10.63;;
78985;SDS011;68384;55.750;48.746;2023-08-06T03:11:36;14.07;;;9.60;;
78985;SDS011;68384;55.750;48.746;2023-08-06T03:12:43;13.77;;;10.02;;
78985;SDS011;68384;55.750;48.746;2023-08-06T03:13:47;15.32;;;11.07;;
78985;SDS011;68384;55.750;48.746;2023-08-06T03:14:51;17.95;;;11.52;;
78985;SDS011;68384;55.750;48.746;2023-08-06T03:15:55;14.85;;;10.93;;
78985;SDS011;68384;55.750;48.746;2023-08-06T03:17:00;18.58;;;10.73;;
78985;SDS011;68384;55.750;48.746;2023-08-06T03:18:04;12.88;;;11.02;;
78985;SDS011;68384;55.750;48.746;2023-08-06T03:19:08;13.10;;;10.88;;
78985;SDS011;68384;55.750;48.746;2023-08-06T03:20:14;15.18;;;10.68;;
78985;SDS011;68384;55.750;48.746;2023-08-06T03:21:17;13.93;;;11.10;;
78985;SDS011;68384;55.750;48.746;2023-08-06T03:22:21;16.92;;;10.95;;
78985;SDS011;68384;55.750;48.746;2023-08-06T03:23:25;14.32;;;10.85;;
78985;SDS011;68384;55.750;48.746;2023-08-06T03:24:28;13.40;;;9.85;;
78985;SDS011;68384;55.750;48.746;2023-08-06T03:25:36;13.85;;;10.65;;
78985;SDS011;68384;55.750;48.746;2023-08-06T03:26:39;15.55;;;9.75;;
78985;SDS011;68384;55.750;48.746;2023-08-06T03:27:44;11.65;;;9.63;;
78985;SDS011;68384;55.750;48.746;2023-08-06T03:28:49;12.63;;;10.50;;
78985;SDS011;68384;55.750;48.746;2023-08-06T03:29:54;11.35;;;9.35;;
78985;SDS011;68384;55.750;48.746;2023-08-06T03:30:59;14.45;;;9.18;;
78985;SDS011;68384;55.750;48.746;2023-08-06T03:32:11;15.82;;;10.43;;
78985;SDS011;68384;55.750;48.746;2023-08-06T03:33:15;13.40;;;9.77;;
78985;SDS011;68384;55.750;48.746;2023-08-06T03:34:20;12.65;;;9.93;;
78985;SDS011;68384;55.750;48.746;2023-08-06T03:35:24;13.55;;;9.85;;
78985;SDS011;68384;55.750;48.746;2023-08-06T03:36:28;13.20;;;10.52;;
78985;SDS011;68384;55.750;48.746;2023-08-06T03:37:32;13.45;;;9.93;;
78985;SDS011;68384;55.750;48.746;2023-08-06T03:38:35;14.82;;;9.75;;
78985;SDS011;68384;55.750;48.746;2023-08-06T03:39:41;12.73;;;10.27;;
78985;SDS011;68384;55.750;48.746;2023-08-06T03:40:47;13.23;;;9.80;;
78985;SDS011;68384;55.750;48.746;2023-08-06T03:41:51;11.75;;;9.27;;
78985;SDS011;68384;55.750;48.746;2023-08-06T03:42:55;13.55;;;9.85;;
78985;SDS011;68384;55.750;48.746;2023-08-06T03:43:59;14.93;;;10.35;;
78985;SDS011;68384;55.750;48.746;2023-08-06T03:45:05;12.27;;;9.05;;
78985;SDS011;68384;55.750;48.746;2023-08-06T03:46:11;12.52;;;10.63;;
78985;SDS011;68384;55.750;48.746;2023-08-06T03:47:14;13.25;;;9.48;;
78985;SDS011;68384;55.750;48.746;2023-08-06T03:48:20;15.93;;;9.88;;
78985;SDS011;68384;55.750;48.746;2023-08-06T03:49:22;12.43;;;9.02;;
78985;SDS011;68384;55.750;48.746;2023-08-06T03:50:27;11.70;;;9.98;;
78985;SDS011;68384;55.750;48.746;2023-08-06T03:51:30;14.45;;;9.88;;
78985;SDS011;68384;55.750;48.746;2023-08-06T03:52:35;13.10;;;10.20;;
78985;SDS011;68384;55.750;48.746;2023-08-06T03:53:39;11.02;;;9.43;;
78985;SDS011;68384;55.750;48.746;2023-08-06T03:54:44;14.43;;;9.20;;
78985;SDS011;68384;55.750;48.746;2023-08-06T03:55:48;13.68;;;9.32;;
78985;SDS011;68384;55.750;48.746;2023-08-06T03:56:52;14.45;;;9.23;;
78985;SDS011;68384;55.750;48.746;2023-08-06T03:57:55;9.77;;;8.70;;
78985;SDS011;68384;55.750;48.746;2023-08-06T03:58:59;9.90;;;8.52;;
78985;SDS011;68384;55.750;48.746;2023-08-06T04:00:02;11.50;;;8.88;;
78985;SDS011;68384;55.750;48.746;2023-08-06T04:01:15;12.38;;;9.07;;
78985;SDS011;68384;55.750;48.746;2023-08-06T04:02:20;11.40;;;8.63;;
78985;SDS011;68384;55.750;48.746;2023-08-06T04:03:24;10.57;;;8.05;;
78985;SDS011;68384;55.750;48.746;2023-08-06T04:04:27;10.90;;;8.52;;
78985;SDS011;68384;55.750;48.746;2023-08-06T04:05:31;11.50;;;8.02;;
78985;SDS011;68384;55.750;48.746;2023-08-06T04:06:34;7.80;;;6.32;;
78985;SDS011;68384;55.750;48.746;2023-08-06T04:07:38;8.23;;;6.45;;
78985;SDS011;68384;55.750;48.746;2023-08-06T04:08:41;7.30;;;6.50;;
78985;SDS011;68384;55.750;48.746;2023-08-06T04:09:51;9.20;;;6.90;;
78985;SDS011;68384;55.750;48.746;2023-08-06T04:10:57;7.70;;;5.88;;
78985;SDS011;68384;55.750;48.746;2023-08-06T04:12:01;9.27;;;6.15;;
78985;SDS011;68384;55.750;48.746;2023-08-06T04:14:08;6.20;;;5.50;;
78985;SDS011;68384;55.750;48.746;2023-08-06T04:15:11;7.45;;;6.00;;
78985;SDS011;68384;55.750;48.746;2023-08-06T04:16:15;10.07;;;6.18;;
78985;SDS011;68384;55.750;48.746;2023-08-06T04:17:18;8.55;;;5.40;;
78985;SDS011;68384;55.750;48.746;2023-08-06T04:18:23;6.35;;;5.25;;
78985;SDS011;68384;55.750;48.746;2023-08-06T04:19:27;11.60;;;5.28;;
78985;SDS011;68384;55.750;48.746;2023-08-06T04:20:31;6.65;;;5.18;;
78985;SDS011;68384;55.750;48.746;2023-08-06T04:21:34;8.30;;;5.60;;
78985;SDS011;68384;55.750;48.746;2023-08-06T04:22:38;5.32;;;4.13;;
78985;SDS011;68384;55.750;48.746;2023-08-06T04:23:41;7.10;;;4.85;;
78985;SDS011;68384;55.750;48.746;2023-08-06T04:24:45;7.20;;;5.63;;
78985;SDS011;68384;55.750;48.746;2023-08-06T04:25:48;12.35;;;5.88;;
78985;SDS011;68384;55.750;48.746;2023-08-06T04:26:53;8.70;;;4.65;;
78985;SDS011;68384;55.750;48.746;2023-08-06T04:27:56;5.43;;;4.50;;
78985;SDS011;68384;55.750;48.746;2023-08-06T04:29:00;6.25;;;4.28;;
78985;SDS011;68384;55.750;48.746;2023-08-06T04:30:03;6.63;;;4.40;;
78985;SDS011;68384;55.750;48.746;2023-08-06T04:31:11;5.28;;;4.63;;
78985;SDS011;68384;55.750;48.746;2023-08-06T04:32:16;5.70;;;4.75;;
78985;SDS011;68384;55.750;48.746;2023-08-06T04:33:25;7.30;;;5.40;;
78985;SDS011;68384;55.750;48.746;2023-08-06T04:34:28;7.68;;;4.82;;
78985;SDS011;68384;55.750;48.746;2023-08-06T04:35:32;5.90;;;4.97;;
78985;SDS011;68384;55.750;48.746;2023-08-06T04:37:42;7.75;;;5.10;;
78985;SDS011;68384;55.750;48.746;2023-08-06T04:38:46;7.75;;;5.28;;
78985;SDS011;68384;55.750;48.746;2023-08-06T04:39:50;6.35;;;5.45;;
78985;SDS011;68384;55.750;48.746;2023-08-06T04:40:53;11.75;;;6.38;;
78985;SDS011;68384;55.750;48.746;2023-08-06T04:42:00;7.82;;;5.03;;
78985;SDS011;68384;55.750;48.746;2023-08-06T04:43:03;8.20;;;5.75;;
78985;SDS011;68384;55.750;48.746;2023-08-06T04:44:09;7.40;;;5.63;;
78985;SDS011;68384;55.750;48.746;2023-08-06T04:45:13;6.50;;;5.20;;
78985;SDS011;68384;55.750;48.746;2023-08-06T04:46:17;8.23;;;5.43;;
78985;SDS011;68384;55.750;48.746;2023-08-06T04:47:20;7.25;;;4.90;;
78985;SDS011;68384;55.750;48.746;2023-08-06T04:48:23;6.20;;;5.03;;
78985;SDS011;68384;55.750;48.746;2023-08-06T04:49:26;8.05;;;4.28;;
78985;SDS011;68384;55.750;48.746;2023-08-06T04:50:30;5.82;;;4.80;;
78985;SDS011;68384;55.750;48.746;2023-08-06T04:51:33;5.35;;;4.85;;
78985;SDS011;68384;55.750;48.746;2023-08-06T04:52:37;7.30;;;4.70;;
78985;SDS011;68384;55.750;48.746;2023-08-06T04:53:40;9.05;;;4.18;;
78985;SDS011;68384;55.750;48.746;2023-08-06T04:54:44;6.13;;;4.20;;
78985;SDS011;68384;55.750;48.746;2023-08-06T04:55:47;5.47;;;4.38;;
78985;SDS011;68384;55.750;48.746;2023-08-06T04:56:51;6.25;;;5.07;;
78985;SDS011;68384;55.750;48.746;2023-08-06T04:57:55;4.90;;;3.90;;
78985;SDS011;68384;55.750;48.746;2023-08-06T04:58:59;5.93;;;5.25;;
78985;SDS011;68384;55.750;48.746;2023-08-06T05:00:02;6.22;;;5.03;;
78985;SDS011;68384;55.750;48.746;2023-08-06T05:01:06;5.50;;;4.85;;
78985;SDS011;68384;55.750;48.746;2023-08-06T05:02:10;7.22;;;4.50;;
78985;SDS011;68384;55.750;48.746;2023-08-06T05:03:13;7.03;;;4.68;;
78985;SDS011;68384;55.750;48.746;2023-08-06T05:04:17;6.40;;;4.60;;
78985;SDS011;68384;55.750;48.746;2023-08-06T05:05:20;6.88;;;4.88;;
78985;SDS011;68384;55.750;48.746;2023-08-06T05:06:24;6.22;;;4.35;;
78985;SDS011;68384;55.750;48.746;2023-08-06T05:07:26;6.35;;;5.15;;
78985;SDS011;68384;55.750;48.746;2023-08-06T05:08:30;9.75;;;5.47;;
78985;SDS011;68384;55.750;48.746;2023-08-06T05:09:33;5.38;;;4.75;;
78985;SDS011;68384;55.750;48.746;2023-08-06T05:10:38;5.72;;;4.63;;
78985;SDS011;68384;55.750;48.746;2023-08-06T05:11:44;5.82;;;4.30;;
78985;SDS011;68384;55.750;48.746;2023-08-06T05:12:47;5.38;;;4.85;;
78985;SDS011;68384;55.750;48.746;2023-08-06T05:13:52;4.72;;;4.13;;
78985;SDS011;68384;55.750;48.746;2023-08-06T05:15:01;6.80;;;4.80;;
78985;SDS011;68384;55.750;48.746;2023-08-06T05:16:04;14.00;;;4.95;;
78985;SDS011;68384;55.750;48.746;2023-08-06T05:17:08;6.60;;;5.38;;
78985;SDS011;68384;55.750;48.746;2023-08-06T05:18:11;9.15;;;5.38;;
78985;SDS011;68384;55.750;48.746;2023-08-06T05:19:15;4.90;;;4.40;;
78985;SDS011;68384;55.750;48.746;2023-08-06T05:20:18;8.15;;;4.80;;
78985;SDS011;68384;55.750;48.746;2023-08-06T05:21:23;6.32;;;5.25;;
78985;SDS011;68384;55.750;48.746;2023-08-06T05:22:25;7.63;;;5.22;;
78985;SDS011;68384;55.750;48.746;2023-08-06T05:23:29;8.60;;;5.60;;
78985;SDS011;68384;55.750;48.746;2023-08-06T05:24:32;6.25;;;5.15;;
78985;SDS011;68384;55.750;48.746;2023-08-06T05:25:36;6.20;;;4.90;;
78985;SDS011;68384;55.750;48.746;2023-08-06T05:26:39;7.65;;;4.40;;
78985;SDS011;68384;55.750;48.746;2023-08-06T05:27:43;7.97;;;4.25;;
78985;SDS011;68384;55.750;48.746;2023-08-06T05:28:45;10.52;;;5.28;;
78985;SDS011;68384;55.750;48.746;2023-08-06T05:29:54;6.35;;;4.07;;
78985;SDS011;68384;55.750;48.746;2023-08-06T05:30:58;6.70;;;4.55;;
78985;SDS011;68384;55.750;48.746;2023-08-06T05:32:02;4.72;;;4.15;;
78985;SDS011;68384;55.750;48.746;2023-08-06T05:33:05;4.25;;;3.85;;
78985;SDS011;68384;55.750;48.746;2023-08-06T05:34:09;9.75;;;5.00;;
78985;SDS011;68384;55.750;48.746;2023-08-06T05:35:12;7.88;;;5.00;;
78985;SDS011;68384;55.750;48.746;2023-08-06T05:36:16;5.75;;;4.45;;
78985;SDS011;68384;55.750;48.746;2023-08-06T05:37:20;5.10;;;4.60;;
78985;SDS011;68384;55.750;48.746;2023-08-06T05:38:24;5.72;;;4.75;;
78985;SDS011;68384;55.750;48.746;2023-08-06T05:39:26;5.90;;;4.15;;
78985;SDS011;68384;55.750;48.746;2023-08-06T05:40:32;7.05;;;4.95;;
78985;SDS011;68384;55.750;48.746;2023-08-06T05:41:35;5.68;;;4.47;;
78985;SDS011;68384;55.750;48.746;2023-08-06T05:42:39;7.25;;;4.82;;
78985;SDS011;68384;55.750;48.746;2023-08-06T05:43:42;6.97;;;4.57;;
78985;SDS011;68384;55.750;48.746;2023-08-06T05:44:46;6.80;;;4.75;;
78985;SDS011;68384;55.750;48.746;2023-08-06T05:45:50;5.53;;;4.60;;
78985;SDS011;68384;55.750;48.746;2023-08-06T05:46:54;6.43;;;4.88;;
78985;SDS011;68384;55.750;48.746;2023-08-06T05:47:57;6.03;;;4.65;;
78985;SDS011;68384;55.750;48.746;2023-08-06T05:49:00;7.72;;;4.90;;
78985;SDS011;68384;55.750;48.746;2023-08-06T05:50:04;6.78;;;4.10;;
78985;SDS011;68384;55.750;48.746;2023-08-06T05:51:08;6.85;;;4.18;;
78985;SDS011;68384;55.750;48.746;2023-08-06T05:52:14;7.78;;;5.05;;
78985;SDS011;68384;55.750;48.746;2023-08-06T05:53:17;5.93;;;4.53;;
78985;SDS011;68384;55.750;48.746;2023-08-06T05:54:21;4.85;;;4.00;;
78985;SDS011;68384;55.750;48.746;2023-08-06T05:55:24;6.88;;;4.70;;
78985;SDS011;68384;55.750;48.746;2023-08-06T05:56:27;9.63;;;4.13;;
78985;SDS011;68384;55.750;48.746;2023-08-06T05:57:30;4.45;;;4.03;;
78985;SDS011;68384;55.750;48.746;2023-08-06T05:58:34;5.68;;;4.20;;
78985;SDS011;68384;55.750;48.746;2023-08-06T05:59:37;7.50;;;4.65;;
78985;SDS011;68384;55.750;48.746;2023-08-06T06:00:41;5.97;;;4.30;;
78985;SDS011;68384;55.750;48.746;2023-08-06T06:01:45;5.15;;;3.72;;
78985;SDS011;68384;55.750;48.746;2023-08-06T06:02:49;6.10;;;4.55;;
78985;SDS011;68384;55.750;48.746;2023-08-06T06:03:52;6.85;;;4.63;;
78985;SDS011;68384;55.750;48.746;2023-08-06T06:04:56;6.10;;;4.72;;
78985;SDS011;68384;55.750;48.746;2023-08-06T06:05:59;6.88;;;4.72;;
78985;SDS011;68384;55.750;48.746;2023-08-06T06:07:04;6.85;;;5.15;;
78985;SDS011;68384;55.750;48.746;2023-08-06T06:08:07;7.65;;;4.40;;
78985;SDS011;68384;55.750;48.746;2023-08-06T06:09:11;5.53;;;4.50;;
78985;SDS011;68384;55.750;48.746;2023-08-06T06:10:14;7.15;;;4.40;;
78985;SDS011;68384;55.750;48.746;2023-08-06T06:11:18;6.22;;;4.53;;
78985;SDS011;68384;55.750;48.746;2023-08-06T06:12:24;6.10;;;4.22;;
78985;SDS011;68384;55.750;48.746;2023-08-06T06:13:28;6.43;;;4.53;;
78985;SDS011;68384;55.750;48.746;2023-08-06T06:14:31;5.22;;;4.22;;
78985;SDS011;68384;55.750;48.746;2023-08-06T06:15:35;7.95;;;4.47;;
78985;SDS011;68384;55.750;48.746;2023-08-06T06:16:37;6.07;;;4.50;;
78985;SDS011;68384;55.750;48.746;2023-08-06T06:17:43;6.93;;;4.55;;
78985;SDS011;68384;55.750;48.746;2023-08-06T06:18:46;6.40;;;4.55;;
78985;SDS011;68384;55.750;48.746;2023-08-06T06:19:50;6.35;;;4.82;;